sensor_id;sensor_type;location;lat;lon;timestamp;P1;durP1;ratioP1;P2;durP2;ratioP2
77402;SDS011;66472;53.046;8.656;2023-04-26T00:03:21;7.35;;;6.50;;
77402;SDS011;66472;53.046;8.656;2023-04-26T00:08:21;8.40;;;7.57;;
77402;SDS011;66472;53.046;8.656;2023-04-26T00:13:16;8.23;;;7.43;;
77402;SDS011;66472;53.046;8.656;2023-04-26T00:18:12;7.33;;;6.63;;
77402;SDS011;66472;53.046;8.656;2023-04-26T00:23:07;7.57;;;6.50;;
77402;SDS011;66472;53.046;8.656;2023-04-26T00:28:08;9.33;;;6.70;;
77402;SDS011;66472;53.046;8.656;2023-04-26T00:33:03;11.63;;;8.00;;
77402;SDS011;66472;53.046;8.656;2023-04-26T00:37:59;9.27;;;7.32;;
77402;SDS011;66472;53.046;8.656;2023-04-26T00:42:57;10.43;;;7.57;;
77402;SDS011;66472;53.046;8.656;2023-04-26T00:47:52;9.07;;;8.20;;
77402;SDS011;66472;53.046;8.656;2023-04-26T00:52:50;10.33;;;8.17;;
77402;SDS011;66472;53.046;8.656;2023-04-26T00:57:55;14.13;;;8.63;;
77402;SDS011;66472;53.046;8.656;2023-04-26T01:02:53;8.87;;;8.03;;
77402;SDS011;66472;53.046;8.656;2023-04-26T01:07:48;8.67;;;8.00;;
77402;SDS011;66472;53.046;8.656;2023-04-26T01:12:47;8.77;;;7.27;;
77402;SDS011;66472;53.046;8.656;2023-04-26T01:17:46;9.07;;;7.30;;
77402;SDS011;66472;53.046;8.656;2023-04-26T01:22:41;8.77;;;7.70;;
77402;SDS011;66472;53.046;8.656;2023-04-26T01:27:37;6.97;;;6.03;;
77402;SDS011;66472;53.046;8.656;2023-04-26T01:32:33;8.37;;;7.40;;
77402;SDS011;66472;53.046;8.656;2023-04-26T01:37:29;11.87;;;7.00;;
77402;SDS011;66472;53.046;8.656;2023-04-26T01:42:28;8.20;;;6.43;;
77402;SDS011;66472;53.046;8.656;2023-04-26T01:47:23;8.10;;;7.27;;
77402;SDS011;66472;53.046;8.656;2023-04-26T01:52:21;10.13;;;6.87;;
77402;SDS011;66472;53.046;8.656;2023-04-26T01:57:16;12.17;;;7.27;;
77402;SDS011;66472;53.046;8.656;2023-04-26T02:02:15;15.10;;;7.40;;
77402;SDS011;66472;53.046;8.656;2023-04-26T02:07:10;13.30;;;8.07;;
77402;SDS011;66472;53.046;8.656;2023-04-26T02:12:14;13.67;;;7.97;;
77402;SDS011;66472;53.046;8.656;2023-04-26T02:17:09;9.83;;;8.73;;
77402;SDS011;66472;53.046;8.656;2023-04-26T02:22:05;15.33;;;8.57;;
77402;SDS011;66472;53.046;8.656;2023-04-26T02:27:00;8.97;;;8.03;;
77402;SDS011;66472;53.046;8.656;2023-04-26T02:31:57;8.63;;;7.83;;
77402;SDS011;66472;53.046;8.656;2023-04-26T02:36:53;9.23;;;7.93;;
77402;SDS011;66472;53.046;8.656;2023-04-26T02:41:49;11.43;;;7.57;;
77402;SDS011;66472;53.046;8.656;2023-04-26T02:46:45;11.17;;;8.60;;
77402;SDS011;66472;53.046;8.656;2023-04-26T02:51:40;9.80;;;8.77;;
77402;SDS011;66472;53.046;8.656;2023-04-26T02:56:35;9.38;;;8.00;;
77402;SDS011;66472;53.046;8.656;2023-04-26T03:01:31;14.52;;;8.85;;
77402;SDS011;66472;53.046;8.656;2023-04-26T03:06:26;11.90;;;9.43;;
77402;SDS011;66472;53.046;8.656;2023-04-26T03:11:23;18.03;;;10.07;;
77402;SDS011;66472;53.046;8.656;2023-04-26T03:16:18;8.57;;;7.63;;
77402;SDS011;66472;53.046;8.656;2023-04-26T03:21:15;11.53;;;9.97;;
77402;SDS011;66472;53.046;8.656;2023-04-26T03:26:11;12.47;;;9.53;;
77402;SDS011;66472;53.046;8.656;2023-04-26T03:31:06;11.77;;;8.07;;
77402;SDS011;66472;53.046;8.656;2023-04-26T03:36:03;9.63;;;8.40;;
77402;SDS011;66472;53.046;8.656;2023-04-26T03:40:59;21.90;;;9.93;;
77402;SDS011;66472;53.046;8.656;2023-04-26T03:45:55;13.33;;;9.83;;
77402;SDS011;66472;53.046;8.656;2023-04-26T03:50:50;12.55;;;8.23;;
77402;SDS011;66472;53.046;8.656;2023-04-26T03:55:46;13.87;;;8.70;;
77402;SDS011;66472;53.046;8.656;2023-04-26T04:00:41;14.53;;;8.80;;
77402;SDS011;66472;53.046;8.656;2023-04-26T04:05:37;13.30;;;8.30;;
77402;SDS011;66472;53.046;8.656;2023-04-26T04:10:33;11.37;;;8.50;;
77402;SDS011;66472;53.046;8.656;2023-04-26T04:15:28;9.37;;;7.77;;
77402;SDS011;66472;53.046;8.656;2023-04-26T04:20:23;9.13;;;8.17;;
77402;SDS011;66472;53.046;8.656;2023-04-26T04:25:20;11.20;;;10.37;;
77402;SDS011;66472;53.046;8.656;2023-04-26T04:30:17;8.60;;;7.87;;
77402;SDS011;66472;53.046;8.656;2023-04-26T04:35:13;7.50;;;6.90;;
77402;SDS011;66472;53.046;8.656;2023-04-26T04:40:10;14.97;;;9.40;;
77402;SDS011;66472;53.046;8.656;2023-04-26T04:45:07;9.60;;;8.60;;
77402;SDS011;66472;53.046;8.656;2023-04-26T04:50:05;9.67;;;8.20;;
77402;SDS011;66472;53.046;8.656;2023-04-26T04:55:02;10.63;;;9.70;;
77402;SDS011;66472;53.046;8.656;2023-04-26T04:59:58;7.70;;;6.90;;
77402;SDS011;66472;53.046;8.656;2023-04-26T05:04:59;8.07;;;7.30;;
77402;SDS011;66472;53.046;8.656;2023-04-26T05:09:56;13.13;;;8.37;;
77402;SDS011;66472;53.046;8.656;2023-04-26T05:14:51;8.47;;;7.77;;
77402;SDS011;66472;53.046;8.656;2023-04-26T05:19:47;8.10;;;7.37;;
77402;SDS011;66472;53.046;8.656;2023-04-26T05:24:45;8.27;;;6.83;;
77402;SDS011;66472;53.046;8.656;2023-04-26T05:29:42;8.23;;;7.50;;
77402;SDS011;66472;53.046;8.656;2023-04-26T05:34:52;7.90;;;6.73;;
77402;SDS011;66472;53.046;8.656;2023-04-26T05:39:48;7.83;;;7.20;;
77402;SDS011;66472;53.046;8.656;2023-04-26T05:44:44;12.50;;;6.77;;
77402;SDS011;66472;53.046;8.656;2023-04-26T05:49:42;7.73;;;6.93;;
77402;SDS011;66472;53.046;8.656;2023-04-26T05:54:37;8.73;;;6.80;;
77402;SDS011;66472;53.046;8.656;2023-04-26T05:59:36;7.87;;;6.73;;
77402;SDS011;66472;53.046;8.656;2023-04-26T06:04:32;9.60;;;8.53;;
77402;SDS011;66472;53.046;8.656;2023-04-26T06:09:35;8.73;;;7.37;;
77402;SDS011;66472;53.046;8.656;2023-04-26T06:14:31;11.63;;;7.43;;
77402;SDS011;66472;53.046;8.656;2023-04-26T06:19:32;9.03;;;7.47;;
77402;SDS011;66472;53.046;8.656;2023-04-26T06:24:29;9.65;;;6.93;;
77402;SDS011;66472;53.046;8.656;2023-04-26T06:29:24;8.13;;;6.77;;
77402;SDS011;66472;53.046;8.656;2023-04-26T06:34:20;7.03;;;6.37;;
77402;SDS011;66472;53.046;8.656;2023-04-26T06:39:15;14.17;;;7.30;;
77402;SDS011;66472;53.046;8.656;2023-04-26T06:44:12;9.83;;;7.03;;
77402;SDS011;66472;53.046;8.656;2023-04-26T06:49:11;11.43;;;6.43;;
77402;SDS011;66472;53.046;8.656;2023-04-26T06:54:06;6.37;;;5.73;;
77402;SDS011;66472;53.046;8.656;2023-04-26T06:59:02;8.35;;;6.28;;
77402;SDS011;66472;53.046;8.656;2023-04-26T07:03:58;7.00;;;6.27;;
77402;SDS011;66472;53.046;8.656;2023-04-26T07:08:53;8.07;;;6.10;;
77402;SDS011;66472;53.046;8.656;2023-04-26T07:13:48;9.57;;;6.20;;
77402;SDS011;66472;53.046;8.656;2023-04-26T07:18:44;7.13;;;6.00;;
77402;SDS011;66472;53.046;8.656;2023-04-26T07:23:42;6.20;;;5.13;;
77402;SDS011;66472;53.046;8.656;2023-04-26T07:28:49;6.23;;;5.63;;
77402;SDS011;66472;53.046;8.656;2023-04-26T07:33:45;8.47;;;5.77;;
77402;SDS011;66472;53.046;8.656;2023-04-26T07:38:40;5.72;;;5.15;;
77402;SDS011;66472;53.046;8.656;2023-04-26T07:43:36;6.63;;;4.90;;
77402;SDS011;66472;53.046;8.656;2023-04-26T07:48:31;4.63;;;4.17;;
77402;SDS011;66472;53.046;8.656;2023-04-26T07:53:27;8.47;;;4.97;;
77402;SDS011;66472;53.046;8.656;2023-04-26T07:58:22;8.00;;;4.40;;
77402;SDS011;66472;53.046;8.656;2023-04-26T08:03:17;6.82;;;4.60;;
77402;SDS011;66472;53.046;8.656;2023-04-26T08:08:13;6.70;;;4.93;;
77402;SDS011;66472;53.046;8.656;2023-04-26T08:13:08;13.13;;;5.57;;
77402;SDS011;66472;53.046;8.656;2023-04-26T08:18:03;6.47;;;4.37;;
77402;SDS011;66472;53.046;8.656;2023-04-26T08:22:58;6.50;;;4.13;;
77402;SDS011;66472;53.046;8.656;2023-04-26T08:27:54;8.20;;;3.97;;
77402;SDS011;66472;53.046;8.656;2023-04-26T08:32:49;5.63;;;4.83;;
77402;SDS011;66472;53.046;8.656;2023-04-26T08:37:45;7.03;;;3.70;;
77402;SDS011;66472;53.046;8.656;2023-04-26T08:42:41;5.43;;;4.53;;
77402;SDS011;66472;53.046;8.656;2023-04-26T08:47:46;8.20;;;4.70;;
77402;SDS011;66472;53.046;8.656;2023-04-26T08:52:42;4.73;;;4.23;;
77402;SDS011;66472;53.046;8.656;2023-04-26T08:57:38;4.00;;;3.30;;
77402;SDS011;66472;53.046;8.656;2023-04-26T09:02:35;6.10;;;4.40;;
77402;SDS011;66472;53.046;8.656;2023-04-26T09:07:31;4.87;;;4.37;;
77402;SDS011;66472;53.046;8.656;2023-04-26T09:12:28;4.00;;;3.60;;
77402;SDS011;66472;53.046;8.656;2023-04-26T09:17:33;5.53;;;3.87;;
77402;SDS011;66472;53.046;8.656;2023-04-26T09:22:34;7.27;;;4.60;;
77402;SDS011;66472;53.046;8.656;2023-04-26T09:27:39;6.63;;;4.13;;
77402;SDS011;66472;53.046;8.656;2023-04-26T09:37:59;6.77;;;4.27;;
77402;SDS011;66472;53.046;8.656;2023-04-26T09:42:59;5.23;;;4.13;;
77402;SDS011;66472;53.046;8.656;2023-04-26T09:48:11;5.57;;;4.53;;
77402;SDS011;66472;53.046;8.656;2023-04-26T09:53:06;10.70;;;5.03;;
77402;SDS011;66472;53.046;8.656;2023-04-26T09:58:11;7.97;;;5.87;;
77402;SDS011;66472;53.046;8.656;2023-04-26T10:03:07;5.67;;;5.27;;
77402;SDS011;66472;53.046;8.656;2023-04-26T10:08:02;5.47;;;5.07;;
77402;SDS011;66472;53.046;8.656;2023-04-26T10:12:58;5.33;;;4.90;;
77402;SDS011;66472;53.046;8.656;2023-04-26T10:17:54;5.37;;;4.00;;
77402;SDS011;66472;53.046;8.656;2023-04-26T10:22:53;8.53;;;5.30;;
77402;SDS011;66472;53.046;8.656;2023-04-26T10:27:49;5.63;;;4.70;;
77402;SDS011;66472;53.046;8.656;2023-04-26T10:48:27;6.73;;;4.07;;
77402;SDS011;66472;53.046;8.656;2023-04-26T10:53:23;5.63;;;3.40;;
77402;SDS011;66472;53.046;8.656;2023-04-26T10:58:25;5.17;;;3.30;;
77402;SDS011;66472;53.046;8.656;2023-04-26T11:03:24;6.27;;;3.73;;
77402;SDS011;66472;53.046;8.656;2023-04-26T11:08:20;4.97;;;4.43;;
77402;SDS011;66472;53.046;8.656;2023-04-26T11:13:16;7.00;;;4.13;;
77402;SDS011;66472;53.046;8.656;2023-04-26T11:18:12;4.80;;;4.43;;
77402;SDS011;66472;53.046;8.656;2023-04-26T11:23:07;3.47;;;3.17;;
77402;SDS011;66472;53.046;8.656;2023-04-26T11:28:03;3.43;;;3.13;;
77402;SDS011;66472;53.046;8.656;2023-04-26T11:33:00;8.47;;;3.77;;
77402;SDS011;66472;53.046;8.656;2023-04-26T11:37:56;4.97;;;3.20;;
77402;SDS011;66472;53.046;8.656;2023-04-26T11:42:52;4.13;;;2.97;;
77402;SDS011;66472;53.046;8.656;2023-04-26T11:47:47;4.37;;;3.80;;
77402;SDS011;66472;53.046;8.656;2023-04-26T11:52:43;4.67;;;3.23;;
77402;SDS011;66472;53.046;8.656;2023-04-26T11:57:38;9.00;;;5.20;;
77402;SDS011;66472;53.046;8.656;2023-04-26T12:02:34;4.93;;;4.00;;
77402;SDS011;66472;53.046;8.656;2023-04-26T12:07:36;5.13;;;3.40;;
77402;SDS011;66472;53.046;8.656;2023-04-26T12:12:31;7.73;;;4.57;;
77402;SDS011;66472;53.046;8.656;2023-04-26T12:17:27;4.77;;;4.33;;
77402;SDS011;66472;53.046;8.656;2023-04-26T12:22:22;5.07;;;4.60;;
77402;SDS011;66472;53.046;8.656;2023-04-26T12:27:21;5.57;;;5.07;;
77402;SDS011;66472;53.046;8.656;2023-04-26T12:32:16;5.90;;;5.40;;
77402;SDS011;66472;53.046;8.656;2023-04-26T12:37:11;5.57;;;4.75;;
77402;SDS011;66472;53.046;8.656;2023-04-26T12:42:06;5.37;;;4.60;;
77402;SDS011;66472;53.046;8.656;2023-04-26T12:47:02;5.93;;;3.97;;
77402;SDS011;66472;53.046;8.656;2023-04-26T12:51:57;10.07;;;4.70;;
77402;SDS011;66472;53.046;8.656;2023-04-26T12:56:53;5.13;;;4.43;;
77402;SDS011;66472;53.046;8.656;2023-04-26T13:01:48;5.03;;;3.90;;
77402;SDS011;66472;53.046;8.656;2023-04-26T13:06:44;6.40;;;4.87;;
77402;SDS011;66472;53.046;8.656;2023-04-26T13:11:39;8.00;;;4.57;;
77402;SDS011;66472;53.046;8.656;2023-04-26T13:16:35;6.00;;;4.20;;
77402;SDS011;66472;53.046;8.656;2023-04-26T13:21:30;5.53;;;4.97;;
77402;SDS011;66472;53.046;8.656;2023-04-26T13:26:26;5.23;;;4.57;;
77402;SDS011;66472;53.046;8.656;2023-04-26T13:31:22;6.27;;;4.07;;
77402;SDS011;66472;53.046;8.656;2023-04-26T13:36:17;4.73;;;3.80;;
77402;SDS011;66472;53.046;8.656;2023-04-26T13:41:13;3.97;;;3.60;;
77402;SDS011;66472;53.046;8.656;2023-04-26T13:46:09;4.83;;;3.23;;
77402;SDS011;66472;53.046;8.656;2023-04-26T13:51:04;4.07;;;3.27;;
77402;SDS011;66472;53.046;8.656;2023-04-26T13:56:00;3.60;;;3.30;;
77402;SDS011;66472;53.046;8.656;2023-04-26T14:00:56;7.53;;;3.70;;
77402;SDS011;66472;53.046;8.656;2023-04-26T14:05:51;6.35;;;3.75;;
77402;SDS011;66472;53.046;8.656;2023-04-26T14:10:46;7.63;;;4.67;;
77402;SDS011;66472;53.046;8.656;2023-04-26T14:15:42;4.97;;;4.57;;
77402;SDS011;66472;53.046;8.656;2023-04-26T14:20:37;5.63;;;4.10;;
77402;SDS011;66472;53.046;8.656;2023-04-26T14:25:33;5.10;;;4.10;;
77402;SDS011;66472;53.046;8.656;2023-04-26T14:30:28;7.80;;;3.87;;
77402;SDS011;66472;53.046;8.656;2023-04-26T14:35:23;6.35;;;3.60;;
77402;SDS011;66472;53.046;8.656;2023-04-26T14:40:18;4.85;;;4.35;;
77402;SDS011;66472;53.046;8.656;2023-04-26T14:45:14;4.83;;;3.73;;
77402;SDS011;66472;53.046;8.656;2023-04-26T14:50:09;4.03;;;3.60;;
77402;SDS011;66472;53.046;8.656;2023-04-26T14:55:07;8.37;;;4.57;;
77402;SDS011;66472;53.046;8.656;2023-04-26T15:00:03;7.97;;;3.90;;
77402;SDS011;66472;53.046;8.656;2023-04-26T15:05:01;8.00;;;4.10;;
77402;SDS011;66472;53.046;8.656;2023-04-26T15:09:58;4.27;;;3.77;;
77402;SDS011;66472;53.046;8.656;2023-04-26T15:14:53;3.87;;;3.47;;
77402;SDS011;66472;53.046;8.656;2023-04-26T15:19:48;6.43;;;3.90;;
77402;SDS011;66472;53.046;8.656;2023-04-26T15:24:44;8.10;;;2.97;;
77402;SDS011;66472;53.046;8.656;2023-04-26T15:29:40;4.03;;;3.53;;
77402;SDS011;66472;53.046;8.656;2023-04-26T15:34:38;5.97;;;3.57;;
77402;SDS011;66472;53.046;8.656;2023-04-26T15:39:34;4.53;;;4.00;;
77402;SDS011;66472;53.046;8.656;2023-04-26T15:44:29;6.20;;;3.60;;
77402;SDS011;66472;53.046;8.656;2023-04-26T15:49:25;4.60;;;4.20;;
77402;SDS011;66472;53.046;8.656;2023-04-26T15:54:20;5.43;;;4.27;;
77402;SDS011;66472;53.046;8.656;2023-04-26T15:59:15;5.13;;;4.63;;
77402;SDS011;66472;53.046;8.656;2023-04-26T16:04:11;7.03;;;3.80;;
77402;SDS011;66472;53.046;8.656;2023-04-26T16:09:06;4.97;;;4.57;;
77402;SDS011;66472;53.046;8.656;2023-04-26T16:14:06;5.90;;;4.60;;
77402;SDS011;66472;53.046;8.656;2023-04-26T16:19:01;6.30;;;4.23;;
77402;SDS011;66472;53.046;8.656;2023-04-26T16:23:56;5.17;;;4.67;;
77402;SDS011;66472;53.046;8.656;2023-04-26T16:28:52;7.23;;;4.60;;
77402;SDS011;66472;53.046;8.656;2023-04-26T16:33:48;5.13;;;4.37;;
77402;SDS011;66472;53.046;8.656;2023-04-26T16:38:44;5.43;;;4.93;;
77402;SDS011;66472;53.046;8.656;2023-04-26T16:43:39;4.93;;;4.37;;
77402;SDS011;66472;53.046;8.656;2023-04-26T16:48:35;4.77;;;4.20;;
77402;SDS011;66472;53.046;8.656;2023-04-26T16:53:30;5.60;;;4.17;;
77402;SDS011;66472;53.046;8.656;2023-04-26T16:58:26;4.73;;;3.93;;
77402;SDS011;66472;53.046;8.656;2023-04-26T17:03:22;4.67;;;4.27;;
77402;SDS011;66472;53.046;8.656;2023-04-26T17:08:18;4.10;;;3.70;;
77402;SDS011;66472;53.046;8.656;2023-04-26T17:13:13;5.73;;;4.73;;
77402;SDS011;66472;53.046;8.656;2023-04-26T17:18:09;6.93;;;5.30;;
77402;SDS011;66472;53.046;8.656;2023-04-26T17:23:05;7.50;;;3.83;;
77402;SDS011;66472;53.046;8.656;2023-04-26T17:28:01;5.00;;;4.60;;
77402;SDS011;66472;53.046;8.656;2023-04-26T17:32:57;5.07;;;4.57;;
77402;SDS011;66472;53.046;8.656;2023-04-26T17:37:52;7.33;;;4.80;;
77402;SDS011;66472;53.046;8.656;2023-04-26T17:42:48;7.03;;;5.70;;
77402;SDS011;66472;53.046;8.656;2023-04-26T17:47:43;7.50;;;5.83;;
77402;SDS011;66472;53.046;8.656;2023-04-26T17:52:40;11.83;;;5.90;;
77402;SDS011;66472;53.046;8.656;2023-04-26T17:57:36;5.30;;;4.87;;
77402;SDS011;66472;53.046;8.656;2023-04-26T18:02:31;7.63;;;5.23;;
77402;SDS011;66472;53.046;8.656;2023-04-26T18:07:27;8.17;;;5.37;;
77402;SDS011;66472;53.046;8.656;2023-04-26T18:12:22;12.02;;;5.22;;
77402;SDS011;66472;53.046;8.656;2023-04-26T18:17:17;8.07;;;4.97;;
77402;SDS011;66472;53.046;8.656;2023-04-26T18:22:13;6.33;;;4.97;;
77402;SDS011;66472;53.046;8.656;2023-04-26T18:27:08;7.33;;;5.60;;
77402;SDS011;66472;53.046;8.656;2023-04-26T18:32:06;6.40;;;5.50;;
77402;SDS011;66472;53.046;8.656;2023-04-26T18:37:01;6.45;;;5.28;;
77402;SDS011;66472;53.046;8.656;2023-04-26T18:41:57;7.40;;;4.77;;
77402;SDS011;66472;53.046;8.656;2023-04-26T18:46:52;7.78;;;4.65;;
77402;SDS011;66472;53.046;8.656;2023-04-26T18:51:49;7.80;;;4.47;;
77402;SDS011;66472;53.046;8.656;2023-04-26T18:56:45;8.03;;;4.93;;
77402;SDS011;66472;53.046;8.656;2023-04-26T19:01:40;7.23;;;5.57;;
77402;SDS011;66472;53.046;8.656;2023-04-26T19:06:35;7.50;;;5.30;;
77402;SDS011;66472;53.046;8.656;2023-04-26T19:11:31;10.13;;;5.32;;
77402;SDS011;66472;53.046;8.656;2023-04-26T19:16:26;6.67;;;4.90;;
77402;SDS011;66472;53.046;8.656;2023-04-26T19:21:21;4.45;;;4.07;;
77402;SDS011;66472;53.046;8.656;2023-04-26T19:26:16;5.75;;;4.97;;
77402;SDS011;66472;53.046;8.656;2023-04-26T19:31:12;10.73;;;4.88;;
77402;SDS011;66472;53.046;8.656;2023-04-26T19:36:07;8.77;;;5.50;;
77402;SDS011;66472;53.046;8.656;2023-04-26T19:41:03;5.63;;;5.13;;
77402;SDS011;66472;53.046;8.656;2023-04-26T19:45:58;6.50;;;5.30;;
77402;SDS011;66472;53.046;8.656;2023-04-26T19:50:54;7.20;;;5.80;;
77402;SDS011;66472;53.046;8.656;2023-04-26T19:55:49;6.07;;;5.20;;
77402;SDS011;66472;53.046;8.656;2023-04-26T20:00:44;7.20;;;5.20;;
77402;SDS011;66472;53.046;8.656;2023-04-26T20:05:41;6.37;;;5.37;;
77402;SDS011;66472;53.046;8.656;2023-04-26T20:10:36;6.25;;;4.97;;
77402;SDS011;66472;53.046;8.656;2023-04-26T20:15:32;7.03;;;4.80;;
77402;SDS011;66472;53.046;8.656;2023-04-26T20:20:27;10.90;;;5.33;;
77402;SDS011;66472;53.046;8.656;2023-04-26T20:25:22;7.00;;;5.40;;
77402;SDS011;66472;53.046;8.656;2023-04-26T20:30:18;9.60;;;5.30;;
77402;SDS011;66472;53.046;8.656;2023-04-26T20:35:13;9.70;;;5.47;;
77402;SDS011;66472;53.046;8.656;2023-04-26T20:40:08;5.85;;;5.45;;
77402;SDS011;66472;53.046;8.656;2023-04-26T20:45:04;6.03;;;5.43;;
77402;SDS011;66472;53.046;8.656;2023-04-26T20:49:59;6.77;;;6.17;;
77402;SDS011;66472;53.046;8.656;2023-04-26T20:54:55;8.80;;;6.87;;
77402;SDS011;66472;53.046;8.656;2023-04-26T20:59:51;8.20;;;5.50;;
77402;SDS011;66472;53.046;8.656;2023-04-26T21:04:47;6.73;;;5.80;;
77402;SDS011;66472;53.046;8.656;2023-04-26T21:09:42;6.50;;;5.97;;
77402;SDS011;66472;53.046;8.656;2023-04-26T21:14:38;7.40;;;6.70;;
77402;SDS011;66472;53.046;8.656;2023-04-26T21:19:33;7.00;;;6.33;;
77402;SDS011;66472;53.046;8.656;2023-04-26T21:24:28;8.77;;;6.57;;
77402;SDS011;66472;53.046;8.656;2023-04-26T21:29:24;7.37;;;6.57;;
77402;SDS011;66472;53.046;8.656;2023-04-26T21:34:19;10.23;;;5.67;;
77402;SDS011;66472;53.046;8.656;2023-04-26T21:39:14;7.20;;;5.93;;
77402;SDS011;66472;53.046;8.656;2023-04-26T21:44:10;7.40;;;6.53;;
77402;SDS011;66472;53.046;8.656;2023-04-26T21:49:05;7.57;;;6.82;;
77402;SDS011;66472;53.046;8.656;2023-04-26T21:54:00;10.65;;;6.63;;
77402;SDS011;66472;53.046;8.656;2023-04-26T21:58:55;7.35;;;6.65;;
77402;SDS011;66472;53.046;8.656;2023-04-26T22:03:51;11.27;;;7.13;;
77402;SDS011;66472;53.046;8.656;2023-04-26T22:08:46;9.50;;;6.57;;
77402;SDS011;66472;53.046;8.656;2023-04-26T22:13:42;7.40;;;6.63;;
77402;SDS011;66472;53.046;8.656;2023-04-26T22:18:37;7.63;;;6.93;;
77402;SDS011;66472;53.046;8.656;2023-04-26T22:23:33;9.27;;;7.37;;
77402;SDS011;66472;53.046;8.656;2023-04-26T22:28:28;7.57;;;6.80;;
77402;SDS011;66472;53.046;8.656;2023-04-26T22:33:23;9.45;;;6.75;;
77402;SDS011;66472;53.046;8.656;2023-04-26T22:38:19;11.93;;;8.03;;
77402;SDS011;66472;53.046;8.656;2023-04-26T22:43:14;9.77;;;7.30;;
77402;SDS011;66472;53.046;8.656;2023-04-26T22:48:09;9.73;;;7.57;;
77402;SDS011;66472;53.046;8.656;2023-04-26T22:53:05;8.97;;;8.27;;
77402;SDS011;66472;53.046;8.656;2023-04-26T22:58:00;9.03;;;8.27;;
77402;SDS011;66472;53.046;8.656;2023-04-26T23:02:56;8.98;;;7.88;;
77402;SDS011;66472;53.046;8.656;2023-04-26T23:07:51;10.33;;;8.93;;
77402;SDS011;66472;53.046;8.656;2023-04-26T23:12:48;10.60;;;7.73;;
77402;SDS011;66472;53.046;8.656;2023-04-26T23:17:43;8.37;;;7.17;;
77402;SDS011;66472;53.046;8.656;2023-04-26T23:22:40;14.50;;;8.67;;
77402;SDS011;66472;53.046;8.656;2023-04-26T23:27:35;11.93;;;8.10;;
77402;SDS011;66472;53.046;8.656;2023-04-26T23:32:31;8.57;;;7.87;;
77402;SDS011;66472;53.046;8.656;2023-04-26T23:37:26;9.70;;;7.97;;
77402;SDS011;66472;53.046;8.656;2023-04-26T23:42:21;12.27;;;7.25;;
77402;SDS011;66472;53.046;8.656;2023-04-26T23:47:16;8.45;;;7.45;;
77402;SDS011;66472;53.046;8.656;2023-04-26T23:52:12;8.13;;;7.53;;
77402;SDS011;66472;53.046;8.656;2023-04-26T23:57:07;8.30;;;7.47;;
